Terminal Aerodrome Forecast
Issued by NWS

Home | Current Version | Previous Version | Text Only | Print | Product List | Glossary On
Versions: 1 2 3 4 5 6 7 8 9 10 11 12 13 14 15 16 17 18 19 20 21 22
000
FTUS42 KKEY 042331
TAFMTH
TAF
KMTH 042331Z 0500/0524 24017G27KT P6SM -RA SCT090 OVC110
     FM050300 27015G25KT P6SM SCT025 SCT090
     FM051400 33012KT P6SM SCT030 SCT050=

USA.gov is the U.S. government's official web portal to all federal, state and local government web resources and services.